createdAt,value
2023-01-01T00:01:44.161Z,26.20
2023-01-01T00:06:47.895Z,24.87
2023-01-01T00:11:55.250Z,26.77
2023-01-01T00:16:59.979Z,26.43
2023-01-01T00:22:27.880Z,24.23
2023-01-01T00:27:30.802Z,23.03
2023-01-01T00:32:36.245Z,25.57
2023-01-01T00:37:46.417Z,25.83
2023-01-01T00:42:54.086Z,24.30
2023-01-01T00:47:57.763Z,25.90
2023-01-01T00:53:05.037Z,24.70
2023-01-01T00:58:10.875Z,24.27
2023-01-01T01:03:29.041Z,26.50
2023-01-01T01:08:36.566Z,24.80
2023-01-01T01:13:42.543Z,23.73
2023-01-01T01:18:47.938Z,23.30
2023-01-01T01:23:55.032Z,25.93
2023-01-01T01:29:00.096Z,23.30
2023-01-01T01:34:06.112Z,24.67
2023-01-01T01:39:14.071Z,24.17
2023-01-01T01:44:52.427Z,23.10
2023-01-01T01:50:06.927Z,24.50
2023-01-01T01:55:13.501Z,23.67
2023-01-01T02:00:18.197Z,22.93
2023-01-01T02:05:23.946Z,22.30
2023-01-01T02:16:20.973Z,21.30
2023-01-01T02:21:50.278Z,22.03
2023-01-01T02:27:23.088Z,23.40
2023-01-01T02:32:30.543Z,23.17
2023-01-01T02:37:37.531Z,22.83
2023-01-01T02:42:43.765Z,22.63
2023-01-01T02:47:47.523Z,22.77
2023-01-01T02:53:10.959Z,23.37
2023-01-01T02:58:44.743Z,21.53
2023-01-01T03:04:26.885Z,22.97
2023-01-01T03:09:45.247Z,21.27
2023-01-01T03:15:00.487Z,21.53
2023-01-01T03:20:14.557Z,19.73
2023-01-01T03:25:27.260Z,19.20
2023-01-01T03:30:34.525Z,21.77
2023-01-01T03:35:38.406Z,22.50
2023-01-01T03:40:46.402Z,20.40
2023-01-01T03:45:54.275Z,21.33
2023-01-01T03:51:15.068Z,21.63
2023-01-01T03:56:40.299Z,22.63
2023-01-01T04:01:54.533Z,22.17
2023-01-01T04:07:14.329Z,21.50
2023-01-01T04:12:20.963Z,20.13
2023-01-01T04:17:26.573Z,20.87
2023-01-01T04:22:30.418Z,23.30
2023-01-01T04:27:36.756Z,24.20
2023-01-01T04:32:42.904Z,22.20
2023-01-01T04:37:49.432Z,22.83
2023-01-01T04:42:57.099Z,23.13
2023-01-01T04:48:08.306Z,23.57
2023-01-01T04:53:12.882Z,25.43
2023-01-01T04:58:18.528Z,23.47
2023-01-01T05:03:24.495Z,26.40
2023-01-01T05:08:30.787Z,26.37
2023-01-01T05:18:44.572Z,27.17
2023-01-01T05:24:01.297Z,28.30
2023-01-01T05:29:16.054Z,30.67
2023-01-01T05:34:22.140Z,31.10
2023-01-01T05:39:26.300Z,32.10
2023-01-01T05:44:30.915Z,32.70
2023-01-01T05:49:37.283Z,41.73
2023-01-01T05:54:47.586Z,38.50
2023-01-01T05:59:51.399Z,34.90
2023-01-01T06:04:56.349Z,36.30
2023-01-01T06:10:01.152Z,34.23
2023-01-01T06:15:06.963Z,33.40
2023-01-01T06:20:12.872Z,30.57
2023-01-01T06:25:18.229Z,33.87
2023-01-01T06:30:24.524Z,32.05
2023-01-01T06:35:30.401Z,31.57
2023-01-01T06:45:43.530Z,27.13
2023-01-01T06:50:48.178Z,30.80
2023-01-01T06:55:57.135Z,32.43
2023-01-01T07:01:09.813Z,33.10
2023-01-01T07:06:17.130Z,32.83
2023-01-01T07:11:24.646Z,36.92
2023-01-01T07:16:29.028Z,39.00
2023-01-01T07:21:34.405Z,42.60
2023-01-01T07:26:41.914Z,40.17
2023-01-01T07:31:47.531Z,35.83
2023-01-01T07:36:57.509Z,40.08
2023-01-01T07:42:10.581Z,42.50
2023-01-01T07:47:28.240Z,93.25
2023-01-01T07:52:32.042Z,46.60
2023-01-01T07:57:35.938Z,55.30
2023-01-01T08:02:40.166Z,42.72
2023-01-01T08:07:49.886Z,38.35
2023-01-01T08:12:59.609Z,33.10
2023-01-01T08:18:07.916Z,31.38
2023-01-01T08:23:16.159Z,30.60
2023-01-01T08:28:23.888Z,29.98
2023-01-01T08:33:32.645Z,32.15
2023-01-01T08:38:42.366Z,30.85
2023-01-01T08:43:49.237Z,30.02
2023-01-01T08:48:54.405Z,29.67
2023-01-01T08:53:58.999Z,24.52
2023-01-01T08:59:07.345Z,28.10
2023-01-01T09:04:15.928Z,25.85
2023-01-01T09:09:25.716Z,23.92
2023-01-01T09:14:36.334Z,21.40
2023-01-01T09:19:45.104Z,19.92
2023-01-01T09:24:48.891Z,19.38
2023-01-01T09:29:53.583Z,20.90
2023-01-01T09:34:58.648Z,24.70
2023-01-01T09:40:06.377Z,21.80
2023-01-01T09:45:30.543Z,56.28
2023-01-01T09:50:41.621Z,76.15
2023-01-01T09:55:59.833Z,54.67
2023-01-01T10:01:41.673Z,32.10
2023-01-01T10:06:58.328Z,32.05
2023-01-01T10:12:13.422Z,25.67
2023-01-01T10:17:40.104Z,22.02
2023-01-01T10:22:57.274Z,21.65
2023-01-01T10:28:32.807Z,19.70
2023-01-01T10:33:38.854Z,20.92
2023-01-01T10:38:52.779Z,19.92
2023-01-01T10:44:00.720Z,23.38
2023-01-01T10:49:16.950Z,26.92
2023-01-01T10:54:47.135Z,24.70
2023-01-01T10:59:54.606Z,21.23
2023-01-01T11:05:32.141Z,23.65
2023-01-01T11:10:40.196Z,20.60
2023-01-01T11:15:47.041Z,19.40
2023-01-01T11:20:59.864Z,17.73
2023-01-01T11:26:22.425Z,16.70
2023-01-01T11:31:31.532Z,17.02
2023-01-01T11:36:36.432Z,17.55
2023-01-01T11:41:50.580Z,17.00
2023-01-01T11:46:56.765Z,16.65
2023-01-01T11:52:21.995Z,17.25
2023-01-01T11:57:30.536Z,16.60
2023-01-01T12:02:45.176Z,18.90
2023-01-01T12:07:55.857Z,17.60
2023-01-01T12:13:07.224Z,16.55
2023-01-01T12:18:48.722Z,17.73
2023-01-01T12:23:54.077Z,17.80
2023-01-01T12:29:39.345Z,19.33
2023-01-01T12:35:02.145Z,19.15
2023-01-01T12:40:40.958Z,21.40
2023-01-01T12:46:11.834Z,17.83
2023-01-01T12:51:35.651Z,17.50
2023-01-01T12:57:20.245Z,15.75
2023-01-01T13:02:31.719Z,15.00
2023-01-01T13:07:46.249Z,16.10
2023-01-01T13:12:51.299Z,15.20
2023-01-01T13:17:58.324Z,15.63
2023-01-01T13:23:05.416Z,14.60
2023-01-01T13:28:17.629Z,13.75
2023-01-01T13:33:34.313Z,13.77
2023-01-01T13:38:57.621Z,13.20
2023-01-01T13:44:02.238Z,12.95
2023-01-01T13:49:40.776Z,12.48
2023-01-01T13:55:40.667Z,11.10
2023-01-01T14:01:03.238Z,12.00
2023-01-01T14:06:44.509Z,12.05
2023-01-01T14:11:50.152Z,11.48
2023-01-01T14:17:02.579Z,10.75
2023-01-01T14:22:14.959Z,10.73
2023-01-01T14:27:23.648Z,9.02
2023-01-01T14:32:39.758Z,9.35
2023-01-01T14:37:46.615Z,8.60
2023-01-01T14:43:07.341Z,9.23
2023-01-01T14:48:21.889Z,8.32
2023-01-01T14:53:34.959Z,8.55
2023-01-01T14:58:42.370Z,8.57
2023-01-01T15:04:02.498Z,8.80
2023-01-01T15:09:09.759Z,7.45
2023-01-01T15:19:42.446Z,6.18
2023-01-01T15:24:46.956Z,6.60
2023-01-01T15:29:58.719Z,6.45
2023-01-01T15:35:32.461Z,6.50
2023-01-01T15:40:39.451Z,5.70
2023-01-01T15:45:58.641Z,5.55
2023-01-01T15:51:25.652Z,6.32
2023-01-01T15:56:41.486Z,7.03
2023-01-01T16:01:47.310Z,6.50
2023-01-01T16:06:56.416Z,7.00
2023-01-01T16:12:01.079Z,7.32
2023-01-01T16:17:05.105Z,6.95
2023-01-01T16:22:13.571Z,7.63
2023-01-01T16:27:21.337Z,7.85
2023-01-01T16:32:26.800Z,7.35
2023-01-01T16:37:30.612Z,6.45
2023-01-01T16:42:36.785Z,7.70
2023-01-01T16:47:46.436Z,6.95
2023-01-01T16:52:51.913Z,9.27
2023-01-01T16:58:20.953Z,8.18
2023-01-01T17:03:20.593Z,7.85
2023-01-01T17:08:26.776Z,7.25
2023-01-01T17:13:40.951Z,7.35
2023-01-01T17:24:19.836Z,7.15
2023-01-01T17:29:25.655Z,7.85
2023-01-01T17:34:32.988Z,6.18
2023-01-01T17:39:37.122Z,6.47
2023-01-01T17:44:50.688Z,6.65
2023-01-01T17:49:56.240Z,7.30
2023-01-01T17:55:02.296Z,8.38
2023-01-01T18:00:11.520Z,7.05
2023-01-01T18:05:23.101Z,8.30
2023-01-01T18:10:30.499Z,6.50
2023-01-01T18:15:40.014Z,6.50
2023-01-01T18:20:48.431Z,6.80
2023-01-01T18:25:56.518Z,7.35
2023-01-01T18:31:18.576Z,6.73
2023-01-01T18:36:29.543Z,6.53
2023-01-01T18:41:55.896Z,6.93
2023-01-01T18:47:16.036Z,7.00
2023-01-01T18:52:26.394Z,7.23
2023-01-01T18:57:32.300Z,6.28
2023-01-01T19:02:45.326Z,5.85
2023-01-01T19:08:05.486Z,7.25
2023-01-01T19:13:23.773Z,6.60
2023-01-01T19:18:37.463Z,6.73
2023-01-01T19:23:44.147Z,6.88
2023-01-01T19:28:53.419Z,6.95
2023-01-01T19:33:59.661Z,6.80
2023-01-01T19:39:11.336Z,6.40
2023-01-01T19:44:24.593Z,6.30
2023-01-01T19:49:31.831Z,5.38
2023-01-01T19:54:38.350Z,5.82
2023-01-01T19:59:43.314Z,6.40
2023-01-01T20:04:48.243Z,6.03
2023-01-01T20:09:52.092Z,6.90
2023-01-01T20:14:57.040Z,7.43
2023-01-01T20:20:01.772Z,6.35
2023-01-01T20:25:07.993Z,6.97
2023-01-01T20:30:11.923Z,6.23
2023-01-01T20:35:16.119Z,6.43
2023-01-01T20:40:21.443Z,5.90
2023-01-01T20:45:27.350Z,6.23
2023-01-01T20:50:32.319Z,5.97
2023-01-01T20:55:39.372Z,5.90
2023-01-01T21:00:43.701Z,6.53
2023-01-01T21:05:51.348Z,5.57
2023-01-01T21:10:56.609Z,5.97
2023-01-01T21:16:23.558Z,6.27
2023-01-01T21:21:55.667Z,6.00
2023-01-01T21:27:16.243Z,6.00
2023-01-01T21:32:37.034Z,6.53
2023-01-01T21:37:50.431Z,6.57
2023-01-01T21:43:13.462Z,5.90
2023-01-01T21:48:30.246Z,5.43
2023-01-01T21:53:39.125Z,5.57
2023-01-01T21:59:07.733Z,6.27
2023-01-01T22:04:11.520Z,5.87
2023-01-01T22:09:24.582Z,6.27
2023-01-01T22:14:44.095Z,5.90
2023-01-01T22:19:54.297Z,5.10
2023-01-01T22:25:08.568Z,6.63
2023-01-01T22:30:18.568Z,6.50
2023-01-01T22:35:29.879Z,5.37
2023-01-01T22:40:39.442Z,5.67
2023-01-01T22:45:49.599Z,4.97
2023-01-01T22:50:57.035Z,6.33
2023-01-01T22:56:00.839Z,6.72
2023-01-01T23:01:05.785Z,5.07
2023-01-01T23:06:10.321Z,6.47
2023-01-01T23:11:19.403Z,5.73
2023-01-01T23:16:26.510Z,5.73
2023-01-01T23:21:31.969Z,5.37
2023-01-01T23:26:36.779Z,5.37
2023-01-01T23:31:43.099Z,5.63
2023-01-01T23:36:49.887Z,5.60
2023-01-01T23:41:57.862Z,5.83
2023-01-01T23:47:02.504Z,6.50
2023-01-01T23:52:07.771Z,6.03
2023-01-01T23:57:11.539Z,6.50
